createdAt,value
2023-02-26T00:00:21.568Z,97440.28
2023-02-26T00:02:50.576Z,97438.59
2023-02-26T00:05:19.496Z,97451.13
2023-02-26T00:07:48.438Z,97431.66
2023-02-26T00:10:17.216Z,97451.94
2023-02-26T00:12:48.822Z,97444.34
2023-02-26T00:15:19.363Z,97452.75
2023-02-26T00:17:56.790Z,97468.69
2023-02-26T00:20:26.728Z,97466.94
2023-02-26T00:22:57.465Z,97455.06
2023-02-26T00:25:27.090Z,97471.94
2023-02-26T00:27:59.169Z,97472.00
2023-02-26T00:30:30.210Z,97459.38
2023-02-26T00:33:00.372Z,97467.72
2023-02-26T00:35:30.150Z,97469.41
2023-02-26T00:38:05.514Z,97477.78
2023-02-26T00:40:45.335Z,97472.66
2023-02-26T00:43:23.507Z,97473.47
2023-02-26T00:46:02.665Z,97478.47
2023-02-26T00:48:42.579Z,97480.19
2023-02-26T00:51:21.538Z,97476.81
2023-02-26T00:54:05.235Z,97472.59
2023-02-26T00:56:34.780Z,97453.06
2023-02-26T00:59:05.594Z,97463.19
2023-02-26T01:01:35.183Z,97471.72
2023-02-26T01:04:07.466Z,97477.56
2023-02-26T01:06:41.481Z,97480.91
2023-02-26T01:09:18.574Z,97472.44
2023-02-26T01:11:49.812Z,97480.03
2023-02-26T01:14:23.311Z,97479.22
2023-02-26T01:17:01.279Z,97475.03
2023-02-26T01:19:37.272Z,97476.72
2023-02-26T01:22:15.134Z,97475.75
2023-02-26T01:24:48.906Z,97473.22
2023-02-26T01:27:17.497Z,97481.56
2023-02-26T01:29:49.581Z,97465.44
2023-02-26T01:32:25.479Z,97470.50
2023-02-26T01:35:01.890Z,97476.41
2023-02-26T01:37:37.712Z,97478.00
2023-02-26T01:40:32.940Z,97483.84
2023-02-26T01:43:09.988Z,97487.25
2023-02-26T01:45:57.415Z,97482.91
2023-02-26T01:48:36.795Z,97482.06
2023-02-26T01:51:07.946Z,97484.53
2023-02-26T01:53:36.897Z,97493.69
2023-02-26T01:56:14.643Z,97499.63
2023-02-26T01:58:44.569Z,97476.81
2023-02-26T02:01:15.325Z,97499.53
2023-02-26T02:03:45.226Z,97488.63
2023-02-26T02:06:20.330Z,97485.22
2023-02-26T02:08:49.375Z,97485.06
2023-02-26T02:11:18.363Z,97500.28
2023-02-26T02:14:05.462Z,97496.09
2023-02-26T02:16:43.714Z,97491.03
2023-02-26T02:19:51.929Z,97498.56
2023-02-26T02:22:47.861Z,97492.66
2023-02-26T02:25:41.278Z,97503.59
2023-02-26T02:28:26.009Z,97507.78
2023-02-26T02:31:08.432Z,97494.25
2023-02-26T02:33:47.263Z,97505.22
2023-02-26T02:36:21.920Z,97513.66
2023-02-26T02:38:55.728Z,97519.50
2023-02-26T02:41:29.271Z,97512.81
2023-02-26T02:44:02.897Z,97516.09
2023-02-26T02:46:37.683Z,97516.03
2023-02-26T02:49:10.213Z,97522.75
2023-02-26T02:51:42.942Z,97517.78
2023-02-26T02:54:15.332Z,97519.50
2023-02-26T02:56:49.082Z,97522.03
2023-02-26T02:59:20.901Z,97521.22
2023-02-26T03:02:01.724Z,97528.84
2023-02-26T03:04:30.341Z,97534.75
2023-02-26T03:06:59.032Z,97530.47
2023-02-26T03:09:29.488Z,97533.88
2023-02-26T03:11:58.181Z,97519.44
2023-02-26T03:14:27.983Z,97531.34
2023-02-26T03:17:18.073Z,97539.59
2023-02-26T03:19:57.674Z,97544.59
2023-02-26T03:22:32.621Z,97553.78
2023-02-26T03:25:09.325Z,97547.81
2023-02-26T03:27:46.470Z,97553.66
2023-02-26T03:30:19.847Z,97540.03
2023-02-26T03:33:00.113Z,97565.34
2023-02-26T03:35:37.319Z,97571.19
2023-02-26T03:38:11.117Z,97567.81
2023-02-26T03:40:42.879Z,97577.06
2023-02-26T03:43:19.859Z,97579.47
2023-02-26T03:45:52.381Z,97574.44
2023-02-26T03:48:28.779Z,97575.94
2023-02-26T03:51:03.653Z,97577.66
2023-02-26T03:53:36.561Z,97591.06
2023-02-26T03:56:09.714Z,97590.88
2023-02-26T03:58:38.929Z,97582.44
2023-02-26T04:01:10.702Z,97588.47
2023-02-26T04:03:46.251Z,97587.53
2023-02-26T04:06:15.105Z,97607.63
2023-02-26T04:08:44.962Z,97603.63
2023-02-26T04:11:17.538Z,97597.78
2023-02-26T04:13:46.733Z,97601.25
2023-02-26T04:16:15.662Z,97621.56
2023-02-26T04:18:45.548Z,97607.16
2023-02-26T04:21:14.917Z,97618.94
2023-02-26T04:23:43.627Z,97619.03
2023-02-26T04:26:13.617Z,97621.44
2023-02-26T04:28:42.489Z,97616.69
2023-02-26T04:31:11.691Z,97625.88
2023-02-26T04:33:40.339Z,97626.75
2023-02-26T04:36:11.163Z,97610.91
2023-02-26T04:38:39.897Z,97623.53
2023-02-26T04:41:08.675Z,97623.47
2023-02-26T04:43:38.076Z,97632.66
2023-02-26T04:46:06.956Z,97640.31
2023-02-26T04:48:35.976Z,97643.63
2023-02-26T04:51:04.757Z,97646.13
2023-02-26T04:53:34.954Z,97634.16
2023-02-26T04:56:03.776Z,97655.13
2023-02-26T04:58:32.372Z,97639.09
2023-02-26T05:01:01.026Z,97667.91
2023-02-26T05:03:29.882Z,97662.81
2023-02-26T05:05:58.753Z,97665.28
2023-02-26T05:08:27.742Z,97661.91
2023-02-26T05:10:57.951Z,97662.06
2023-02-26T05:13:27.036Z,97667.00
2023-02-26T05:15:56.401Z,97672.94
2023-02-26T05:18:24.854Z,97677.31
2023-02-26T05:20:54.992Z,97655.22
2023-02-26T05:23:24.200Z,97675.75
2023-02-26T05:25:52.774Z,97673.19
2023-02-26T05:28:23.202Z,97674.06
2023-02-26T05:30:52.208Z,97681.75
2023-02-26T05:33:20.788Z,97686.59
2023-02-26T05:35:49.371Z,97679.16
2023-02-26T05:38:17.910Z,97680.84
2023-02-26T05:40:46.388Z,97674.97
2023-02-26T05:43:14.865Z,97674.06
2023-02-26T05:45:44.775Z,97687.50
2023-02-26T05:48:13.934Z,97684.16
2023-02-26T05:50:42.140Z,97690.03
2023-02-26T05:53:10.483Z,97698.38
2023-02-26T05:55:39.004Z,97694.19
2023-02-26T05:58:07.476Z,97696.69
2023-02-26T06:00:36.060Z,97689.03
2023-02-26T06:03:06.750Z,97702.63
2023-02-26T06:05:36.523Z,97698.31
2023-02-26T06:08:05.524Z,97716.13
2023-02-26T06:10:34.340Z,97714.34
2023-02-26T06:13:02.808Z,97705.09
2023-02-26T06:15:31.256Z,97715.28
2023-02-26T06:17:59.952Z,97726.97
2023-02-26T06:20:30.222Z,97728.59
2023-02-26T06:22:59.232Z,97726.13
2023-02-26T06:25:27.980Z,97733.72
2023-02-26T06:27:56.572Z,97726.03
2023-02-26T06:30:25.486Z,97734.59
2023-02-26T06:32:53.895Z,97743.06
2023-02-26T06:35:22.170Z,97740.53
2023-02-26T06:37:52.386Z,97737.00
2023-02-26T06:40:20.878Z,97759.31
2023-02-26T06:42:49.757Z,97752.72
2023-02-26T06:45:18.781Z,97751.63
2023-02-26T06:47:47.160Z,97760.06
2023-02-26T06:50:15.715Z,97758.66
2023-02-26T06:52:44.542Z,97769.63
2023-02-26T06:55:14.426Z,97783.84
2023-02-26T06:57:43.026Z,97789.25
2023-02-26T07:00:12.729Z,97789.75
2023-02-26T07:02:41.261Z,97782.19
2023-02-26T07:05:11.223Z,97805.78
2023-02-26T07:07:40.053Z,97806.53
2023-02-26T07:10:09.339Z,97811.00
2023-02-26T07:12:39.684Z,97809.97
2023-02-26T07:15:09.258Z,97816.69
2023-02-26T07:17:37.666Z,97813.03
2023-02-26T07:20:10.432Z,97817.34
2023-02-26T07:22:40.116Z,97824.91
2023-02-26T07:25:09.589Z,97823.19
2023-02-26T07:27:43.388Z,97838.53
2023-02-26T07:30:13.557Z,97839.28
2023-02-26T07:32:42.659Z,97848.69
2023-02-26T07:35:11.883Z,97838.53
2023-02-26T07:37:40.589Z,97848.03
2023-02-26T07:40:11.220Z,97842.09
2023-02-26T07:42:42.352Z,97842.81
2023-02-26T07:45:12.057Z,97850.56
2023-02-26T07:47:40.732Z,97855.88
2023-02-26T07:50:11.001Z,97852.75
2023-02-26T07:52:39.749Z,97860.16
2023-02-26T07:55:09.499Z,97860.16
2023-02-26T07:57:38.105Z,97867.97
2023-02-26T08:00:09.905Z,97874.69
2023-02-26T08:02:38.541Z,97871.44
2023-02-26T08:05:07.242Z,97868.91
2023-02-26T08:07:35.677Z,97866.22
2023-02-26T08:10:05.549Z,97867.41
2023-02-26T08:12:34.493Z,97887.97
2023-02-26T08:15:04.211Z,97896.38
2023-02-26T08:17:34.381Z,97887.13
2023-02-26T08:20:03.599Z,97886.34
2023-02-26T08:22:31.812Z,97888.88
2023-02-26T08:25:00.557Z,97901.53
2023-02-26T08:27:30.081Z,97899.84
2023-02-26T08:29:58.538Z,97902.50
2023-02-26T08:32:28.397Z,97902.00
2023-02-26T08:34:58.834Z,97908.16
2023-02-26T08:37:27.837Z,97898.09
2023-02-26T08:39:57.014Z,97893.91
2023-02-26T08:42:25.506Z,97910.25
2023-02-26T08:44:54.112Z,97902.53
2023-02-26T08:47:28.819Z,97912.97
2023-02-26T08:50:01.015Z,97918.00
2023-02-26T08:52:41.589Z,97924.72
2023-02-26T08:55:16.313Z,97933.19
2023-02-26T08:57:48.113Z,97940.97
2023-02-26T09:00:21.506Z,97925.63
2023-02-26T09:02:52.185Z,97951.97
2023-02-26T09:05:25.891Z,97948.41
2023-02-26T09:07:54.541Z,97965.53
2023-02-26T09:10:23.147Z,97964.19
2023-02-26T09:12:52.797Z,97951.41
2023-02-26T09:15:21.995Z,97948.00
2023-02-26T09:17:51.922Z,97960.16
2023-02-26T09:20:22.642Z,97975.78
2023-02-26T09:22:51.180Z,97975.25
2023-02-26T09:25:19.877Z,97971.16
2023-02-26T09:27:48.308Z,97977.81
2023-02-26T09:30:17.730Z,97956.03
2023-02-26T09:32:46.979Z,97974.06
2023-02-26T09:35:15.733Z,97981.50
2023-02-26T09:37:45.946Z,97981.28
2023-02-26T09:40:26.104Z,97978.44
2023-02-26T09:43:10.149Z,97971.94
2023-02-26T09:45:44.468Z,97987.41
2023-02-26T09:48:17.949Z,97980.91
2023-02-26T09:50:49.619Z,97981.72
2023-02-26T09:53:24.239Z,97991.72
2023-02-26T09:55:56.214Z,97992.41
2023-02-26T09:58:30.168Z,98001.59
2023-02-26T10:01:03.370Z,98006.50
2023-02-26T10:03:37.725Z,97997.91
2023-02-26T10:06:20.859Z,98004.69
2023-02-26T10:09:03.980Z,98020.38
2023-02-26T10:11:38.606Z,98013.47
2023-02-26T10:14:13.695Z,98022.81
2023-02-26T10:16:47.764Z,98026.22
2023-02-26T10:19:21.050Z,98023.66
2023-02-26T10:21:54.849Z,98031.03
2023-02-26T10:24:28.870Z,98035.31
2023-02-26T10:27:14.127Z,98031.97
2023-02-26T10:29:50.019Z,98044.16
2023-02-26T10:32:27.023Z,98046.19
2023-02-26T10:34:59.643Z,98027.53
2023-02-26T10:37:41.567Z,98048.06
2023-02-26T10:40:19.061Z,98034.78
2023-02-26T10:42:52.523Z,98049.09
2023-02-26T10:45:42.949Z,98032.41
2023-02-26T10:48:35.998Z,98045.94
2023-02-26T10:51:17.636Z,98042.47
2023-02-26T10:53:51.504Z,98028.81
2023-02-26T10:56:24.677Z,98037.44
2023-02-26T10:58:55.114Z,98041.56
2023-02-26T11:01:26.789Z,98028.13
2023-02-26T11:04:01.284Z,98035.22
2023-02-26T11:06:33.474Z,98042.81
2023-02-26T11:09:04.047Z,98040.22
2023-02-26T11:11:47.845Z,98044.50
2023-02-26T11:14:17.048Z,98036.47
2023-02-26T11:16:50.428Z,98044.94
2023-02-26T11:19:21.553Z,98048.94
2023-02-26T11:21:52.274Z,98045.25
2023-02-26T11:24:30.142Z,98045.94
2023-02-26T11:27:04.443Z,98051.28
2023-02-26T11:29:40.066Z,98051.97
2023-02-26T11:32:09.904Z,98037.75
2023-02-26T11:34:38.973Z,98047.00
2023-02-26T11:37:08.191Z,98033.56
2023-02-26T11:39:40.248Z,98044.75
2023-02-26T11:42:13.323Z,98035.72
2023-02-26T11:44:45.722Z,98037.00
2023-02-26T11:47:17.468Z,98043.66
2023-02-26T11:49:51.748Z,98046.75
2023-02-26T11:52:23.980Z,98035.66
2023-02-26T11:54:56.907Z,98050.84
2023-02-26T11:57:30.221Z,98049.09
2023-02-26T12:00:02.303Z,98034.97
2023-02-26T12:02:36.512Z,98035.06
2023-02-26T12:05:08.800Z,98029.16
2023-02-26T12:07:38.951Z,98019.97
2023-02-26T12:10:17.120Z,98029.41
2023-02-26T12:13:02.681Z,98005.81
2023-02-26T12:15:37.759Z,98017.72
2023-02-26T12:18:30.027Z,98015.44
2023-02-26T12:21:11.395Z,98007.59
2023-02-26T12:24:02.833Z,98022.75
2023-02-26T12:26:35.111Z,98036.06
2023-02-26T12:29:24.074Z,98025.03
2023-02-26T12:32:16.998Z,98031.03
2023-02-26T12:35:13.264Z,98030.97
2023-02-26T12:37:56.171Z,98030.22
2023-02-26T12:40:45.279Z,98038.81
2023-02-26T12:43:22.010Z,98028.56
2023-02-26T12:45:56.775Z,98033.09
2023-02-26T12:48:46.853Z,98030.47
2023-02-26T12:51:30.985Z,98039.75
2023-02-26T12:54:11.388Z,98025.16
2023-02-26T12:57:08.389Z,98041.13
2023-02-26T13:00:16.433Z,98035.97
2023-02-26T13:03:22.272Z,98034.34
2023-02-26T13:06:06.209Z,98039.34
2023-02-26T13:08:43.787Z,98042.59
2023-02-26T13:11:23.364Z,98044.22
2023-02-26T13:14:14.312Z,98058.47
2023-02-26T13:16:52.141Z,98047.53
2023-02-26T13:19:34.838Z,98049.22
2023-02-26T13:22:08.040Z,98064.59
2023-02-26T13:24:39.998Z,98061.97
2023-02-26T13:27:11.306Z,98053.47
2023-02-26T13:29:47.895Z,98059.47
2023-02-26T13:32:21.285Z,98052.19
2023-02-26T13:34:59.004Z,98049.78
2023-02-26T13:37:31.095Z,98040.63
2023-02-26T13:40:19.205Z,98055.09
2023-02-26T13:42:55.063Z,98047.75
2023-02-26T13:45:36.271Z,98049.41
2023-02-26T13:48:22.433Z,98054.34
2023-02-26T13:51:04.422Z,98049.06
2023-02-26T13:53:59.296Z,98069.63
2023-02-26T13:56:54.916Z,98069.69
2023-02-26T13:59:33.371Z,98061.19
2023-02-26T14:02:04.675Z,98071.34
2023-02-26T14:04:50.770Z,98061.19
2023-02-26T14:07:50.694Z,98070.81
2023-02-26T14:10:26.434Z,98068.38
2023-02-26T14:13:10.565Z,98083.75
2023-02-26T14:15:44.951Z,98087.72
2023-02-26T14:18:29.317Z,98078.41
2023-02-26T14:21:37.528Z,98077.31
2023-02-26T14:24:17.573Z,98079.13
2023-02-26T14:26:48.640Z,98085.06
2023-02-26T14:29:24.433Z,98083.41
2023-02-26T14:32:05.360Z,98092.78
2023-02-26T14:34:37.886Z,98105.38
2023-02-26T14:37:10.182Z,98097.78
2023-02-26T14:39:45.360Z,98105.34
2023-02-26T14:42:18.839Z,98108.72
2023-02-26T14:44:50.783Z,98105.38
2023-02-26T14:47:19.885Z,98110.47
2023-02-26T14:49:54.516Z,98118.22
2023-02-26T14:52:48.421Z,98122.38
2023-02-26T14:55:56.149Z,98128.88
2023-02-26T14:58:45.499Z,98121.31
2023-02-26T15:01:32.197Z,98125.50
2023-02-26T15:04:17.539Z,98122.97
2023-02-26T15:07:04.124Z,98140.84
2023-02-26T15:09:47.110Z,98128.88
2023-02-26T15:12:33.508Z,98136.38
2023-02-26T15:15:17.121Z,98138.00
2023-02-26T15:17:57.885Z,98155.75
2023-02-26T15:20:33.139Z,98160.63
2023-02-26T15:23:26.688Z,98155.66
2023-02-26T15:25:58.760Z,98168.38
2023-02-26T15:28:36.248Z,98164.03
2023-02-26T15:31:06.472Z,98173.41
2023-02-26T15:33:36.195Z,98177.59
2023-02-26T15:36:10.196Z,98187.66
2023-02-26T15:38:44.439Z,98179.69
2023-02-26T15:41:14.275Z,98192.44
2023-02-26T15:44:25.090Z,98186.44
2023-02-26T15:47:24.484Z,98192.34
2023-02-26T15:49:55.009Z,98203.16
2023-02-26T15:52:26.629Z,98205.69
2023-02-26T15:55:01.130Z,98214.13
2023-02-26T15:57:31.511Z,98208.06
2023-02-26T16:00:08.552Z,98205.47
2023-02-26T16:02:37.952Z,98214.81
2023-02-26T16:05:07.166Z,98220.75
2023-02-26T16:07:35.648Z,98218.00
2023-02-26T16:10:07.987Z,98220.63
2023-02-26T16:12:40.602Z,98230.69
2023-02-26T16:15:15.386Z,98222.19
2023-02-26T16:17:45.864Z,98206.66
2023-02-26T16:20:18.847Z,98230.41
2023-02-26T16:22:51.498Z,98210.81
2023-02-26T16:25:27.688Z,98235.31
2023-02-26T16:28:01.858Z,98239.38
2023-02-26T16:30:36.563Z,98240.16
2023-02-26T16:33:06.712Z,98250.25
2023-02-26T16:35:40.302Z,98248.50
2023-02-26T16:38:19.076Z,98253.53
2023-02-26T16:40:50.112Z,98246.66
2023-02-26T16:43:36.903Z,98262.72
2023-02-26T16:46:07.864Z,98266.88
2023-02-26T16:48:41.806Z,98270.25
2023-02-26T16:51:16.204Z,98273.53
2023-02-26T16:53:49.097Z,98290.34
2023-02-26T16:56:20.543Z,98287.75
2023-02-26T16:58:52.769Z,98285.13
2023-02-26T17:01:24.878Z,98295.88
2023-02-26T17:04:01.720Z,98298.47
2023-02-26T17:06:31.935Z,98306.03
2023-02-26T17:09:02.161Z,98301.78
2023-02-26T17:11:33.404Z,98311.03
2023-02-26T17:14:22.816Z,98312.59
2023-02-26T17:16:54.243Z,98321.81
2023-02-26T17:19:22.610Z,98331.91
2023-02-26T17:21:54.388Z,98331.81
2023-02-26T17:24:28.064Z,98326.75
2023-02-26T17:26:56.700Z,98339.38
2023-02-26T17:29:32.243Z,98339.19
2023-02-26T17:32:02.553Z,98329.59
2023-02-26T17:34:31.119Z,98345.91
2023-02-26T17:37:05.849Z,98342.50
2023-02-26T17:39:34.465Z,98346.66
2023-02-26T17:42:02.847Z,98351.59
2023-02-26T17:44:31.645Z,98351.63
2023-02-26T17:47:01.978Z,98354.91
2023-02-26T17:49:31.109Z,98366.75
2023-02-26T17:52:00.360Z,98361.69
2023-02-26T17:54:28.896Z,98370.00
2023-02-26T17:56:57.876Z,98377.66
2023-02-26T17:59:29.315Z,98369.00
2023-02-26T18:01:58.171Z,98380.03
2023-02-26T18:04:29.831Z,98383.25
2023-02-26T18:06:58.861Z,98389.16
2023-02-26T18:09:27.421Z,98395.00
2023-02-26T18:11:56.108Z,98388.16
2023-02-26T18:14:26.162Z,98392.44
2023-02-26T18:16:55.693Z,98390.69
2023-02-26T18:19:24.488Z,98390.63
2023-02-26T18:21:54.322Z,98385.69
2023-02-26T18:24:23.386Z,98394.94
2023-02-26T18:26:53.221Z,98391.50
2023-02-26T18:29:22.342Z,98384.69
2023-02-26T18:31:51.092Z,98384.59
2023-02-26T18:34:21.034Z,98393.00
2023-02-26T18:36:49.712Z,98399.81
2023-02-26T18:39:20.959Z,98403.19
2023-02-26T18:41:49.630Z,98403.88
2023-02-26T18:44:18.169Z,98413.13
2023-02-26T18:46:47.145Z,98417.19
2023-02-26T18:49:18.591Z,98419.66
2023-02-26T18:51:47.328Z,98415.44
2023-02-26T18:54:16.036Z,98443.13
2023-02-26T18:56:47.370Z,98427.97
2023-02-26T18:59:16.225Z,98438.72
2023-02-26T19:01:45.752Z,98436.38
2023-02-26T19:04:15.932Z,98444.63
2023-02-26T19:06:44.959Z,98444.59
2023-02-26T19:09:13.844Z,98446.31
2023-02-26T19:11:43.261Z,98451.19
2023-02-26T19:14:15.020Z,98456.22
2023-02-26T19:16:44.217Z,98455.22
2023-02-26T19:19:13.334Z,98451.69
2023-02-26T19:21:42.541Z,98469.41
2023-02-26T19:24:13.455Z,98464.47
2023-02-26T19:26:42.878Z,98468.56
2023-02-26T19:29:17.788Z,98471.88
2023-02-26T19:31:47.130Z,98472.53
2023-02-26T19:34:16.035Z,98478.50
2023-02-26T19:36:48.454Z,98478.59
2023-02-26T19:39:18.613Z,98481.00
2023-02-26T19:41:49.463Z,98480.00
2023-02-26T19:44:20.478Z,98487.66
2023-02-26T19:46:50.104Z,98477.22
2023-02-26T19:49:20.110Z,98492.63
2023-02-26T19:51:48.525Z,98496.91
2023-02-26T19:54:17.285Z,98499.28
2023-02-26T19:56:46.622Z,98495.59
2023-02-26T19:59:18.900Z,98486.28
2023-02-26T20:01:49.862Z,98501.56
2023-02-26T20:04:19.374Z,98495.78
2023-02-26T20:06:47.830Z,98495.53
2023-02-26T20:09:17.427Z,98497.31
2023-02-26T20:11:46.287Z,98509.13
2023-02-26T20:14:14.948Z,98508.22
2023-02-26T20:16:43.831Z,98505.59
2023-02-26T20:19:13.915Z,98498.94
2023-02-26T20:21:43.073Z,98508.97
2023-02-26T20:24:11.735Z,98506.44
2023-02-26T20:26:40.504Z,98511.22
2023-02-26T20:29:09.387Z,98518.97
2023-02-26T20:31:38.458Z,98517.25
2023-02-26T20:34:06.990Z,98519.69
2023-02-26T20:36:37.216Z,98516.06
2023-02-26T20:39:07.237Z,98521.00
2023-02-26T20:41:35.711Z,98521.84
2023-02-26T20:44:04.004Z,98522.84
2023-02-26T20:46:35.946Z,98521.94
2023-02-26T20:49:04.564Z,98518.88
2023-02-26T20:51:33.756Z,98523.06
2023-02-26T20:54:03.477Z,98520.31
2023-02-26T20:56:31.926Z,98519.50
2023-02-26T20:59:00.390Z,98518.50
2023-02-26T21:01:35.736Z,98523.53
2023-02-26T21:04:06.126Z,98521.81
2023-02-26T21:06:35.000Z,98526.06
2023-02-26T21:09:09.346Z,98521.00
2023-02-26T21:11:38.694Z,98530.88
2023-02-26T21:14:08.863Z,98532.50
2023-02-26T21:16:38.790Z,98534.78
2023-02-26T21:19:07.308Z,98532.28
2023-02-26T21:21:35.848Z,98533.13
2023-02-26T21:24:06.188Z,98539.91
2023-02-26T21:26:35.338Z,98543.28
2023-02-26T21:29:05.509Z,98538.91
2023-02-26T21:31:33.708Z,98537.09
2023-02-26T21:34:17.303Z,98538.78
2023-02-26T21:36:50.574Z,98539.50
2023-02-26T21:39:20.806Z,98535.13
2023-02-26T21:41:51.140Z,98540.22
2023-02-26T21:44:19.512Z,98550.25
2023-02-26T21:46:48.204Z,98540.34
2023-02-26T21:49:16.715Z,98541.84
2023-02-26T21:51:45.434Z,98546.25
2023-02-26T21:54:13.678Z,98556.09
2023-02-26T21:56:43.725Z,98550.34
2023-02-26T21:59:13.549Z,98544.34
2023-02-26T22:01:42.288Z,98545.13
2023-02-26T22:04:10.988Z,98540.88
2023-02-26T22:06:39.921Z,98549.53
2023-02-26T22:09:08.164Z,98552.06
2023-02-26T22:11:36.688Z,98557.72
2023-02-26T22:14:06.571Z,98554.97
2023-02-26T22:16:34.911Z,98546.59
2023-02-26T22:19:03.688Z,98549.16
2023-02-26T22:21:32.000Z,98559.91
2023-02-26T22:24:02.254Z,98554.22
2023-02-26T22:26:31.554Z,98551.63
2023-02-26T22:29:01.032Z,98553.34
2023-02-26T22:31:32.246Z,98561.88
2023-02-26T22:34:01.058Z,98555.81
2023-02-26T22:36:31.506Z,98565.47
2023-02-26T22:39:00.025Z,98565.44
2023-02-26T22:41:28.430Z,98561.06
2023-02-26T22:43:57.128Z,98561.06
2023-02-26T22:46:28.593Z,98567.97
2023-02-26T22:48:58.716Z,98568.47
2023-02-26T22:51:28.753Z,98575.31
2023-02-26T22:53:58.922Z,98573.41
2023-02-26T22:56:27.421Z,98579.50
2023-02-26T22:58:57.317Z,98585.34
2023-02-26T23:01:26.246Z,98566.38
2023-02-26T23:03:54.641Z,98594.53
2023-02-26T23:06:24.530Z,98595.88
2023-02-26T23:08:53.026Z,98592.41
2023-02-26T23:11:21.399Z,98597.38
2023-02-26T23:13:49.982Z,98602.50
2023-02-26T23:16:18.367Z,98602.53
2023-02-26T23:18:48.231Z,98589.38
2023-02-26T23:21:17.066Z,98584.16
2023-02-26T23:23:48.752Z,98584.03
2023-02-26T23:26:17.127Z,98604.41
2023-02-26T23:28:45.810Z,98585.72
2023-02-26T23:31:21.101Z,98592.72
2023-02-26T23:33:50.152Z,98600.06
2023-02-26T23:36:18.783Z,98596.22
2023-02-26T23:38:48.783Z,98588.44
2023-02-26T23:41:17.560Z,98592.31
2023-02-26T23:43:46.201Z,98584.69
2023-02-26T23:46:14.758Z,98598.94
2023-02-26T23:48:43.212Z,98589.38
2023-02-26T23:51:11.686Z,98587.91
2023-02-26T23:53:40.718Z,98591.56
2023-02-26T23:56:10.803Z,98590.28
2023-02-26T23:58:39.506Z,98588.66
